Latest Coastal Weather Observations for Yamba

IDN60701

Issued at 8:51 am EST Monday 20 April 2015 (issued every 10 minutes, with the page automatically refreshed every 10 minutes)

About coastal observations | Map of coastal stations | Coastal observations for NSW | Marine services | Other Formats
Station Details ID: 058012 Name: YAMBA PILOT STATION Lat: -29.43 Lon: 153.36 Height: 27.4 m
Data from the previous 72 hours. | See also: Recent months at Yamba
Date/Time
EST
Temp

°C
Wind Pressure Rain
since 9am
mm
Weather Cloud Vis
km
Sea
Height
m
Swell
Dir
 
Speed
knots
Gust
knots
hPa Trend Height
m
Period
s
Dir
20/08:30am 18.4 SSW 5 11 1018.8 - 8.8 - - - - - - -
20/08:00am 18.3 S 8 12 1018.6 - 8.6 - - - - - - -
20/07:30am 18.2 S 7 11 1018.9 - 8.2 - - - - - - -
20/07:00am 17.9 S 9 15 1018.7 - 7.8 - - - - - - -
20/06:30am 17.7 S 8 11 1018.6 - 7.2 - - - - - - -
20/06:00am 17.7 SSW 7 10 1018.9 - 6.2 Rain - - - - - -
20/05:30am 17.8 SSW 7 11 1019.0 - 5.2 - - - - - - -
20/05:00am 18.0 SSW 7 9 1018.7 - 4.0 - - - - - - -
20/04:30am 17.9 SSW 7 11 1018.5 - 3.2 - - - - - - -
20/04:00am 17.8 SSW 8 13 1018.0 - 3.2 - - - - - - -
20/03:30am 17.8 SSW 7 11 1017.7 - 3.0 - - - - - - -
20/03:00am 17.8 S 8 15 1018.3 - 2.4 Rain - - - - - -
20/02:30am 18.4 SSW 8 13 1018.2 - 1.8 - - - - - - -
20/02:00am 19.3 S 11 17 1017.9 - 1.4 - - - - - - -
20/01:30am 19.3 S 9 17 1018.3 - 1.4 - - - - - - -
20/01:00am 19.2 S 10 19 1018.3 - 1.2 - - - - - - -
20/12:30am 19.1 S 8 13 1018.4 - 1.0 - - - - - - -
20/12:00am 19.6 S 9 13 1019.2 - 0.6 - - - - - - -
 
Date/Time
EST
Temp

°C
Wind Pressure Rain
since 9am
mm
Weather Cloud Vis
km
Sea
Height
m
Swell
Dir
 
Speed
knots
Gust
knots
hPa Trend Height
m
Period
s
Dir
19/11:30pm 19.8 SSW 6 9 1018.7 - 0.6 - - - - - - -
19/11:00pm 19.7 SSW 6 9 1019.1 - 0.6 - - - - - - -
19/10:30pm 19.6 SSW 7 10 1019.2 - 0.6 - - - - - - -
19/10:00pm 19.7 SSW 7 10 1019.5 - 0.4 - - - - - - -
19/09:30pm 19.9 S 7 11 1019.5 - 0.4 - - - - - - -
19/09:00pm 20.4 S 8 11 1019.3 - 0.4 - - - - - - -
19/08:30pm 20.4 S 8 11 1019.1 - 0.4 - - - - - - -
19/08:00pm 20.3 S 6 8 1019.2 - 0.4 - - - - - - -
19/07:30pm 20.5 S 7 10 1018.9 - 0.4 - - - - - - -
19/07:00pm 20.9 SSE 7 11 1018.3 - 0.4 - - - - - - -
19/06:30pm 21.2 S 7 9 1017.8 - 0.4 - - - - - - -
19/06:00pm 21.4 SSE 6 8 1017.8 - 0.4 Recent precip. - - - - - -
19/05:30pm 21.9 SSE 5 7 1017.6 - 0.0 - - - - - - -
19/05:00pm 23.3 SSW 4 5 1017.4 - 0.0 - - - - - - -
19/04:30pm 23.4 W 4 6 1017.1 - 0.0 - - - - - - -
19/04:00pm 23.7 W 4 6 1016.9 - 0.0 - - - - - - -
19/03:30pm 23.8 W 5 7 1016.8 - 0.0 - - - - - - -
19/03:00pm 24.6 W 7 11 1016.7 - 0.0 - - - - - - -
19/02:30pm 25.3 WSW 5 8 1016.2 - 0.0 - - - - - - -
19/02:00pm 25.2 W 9 14 1016.3 - 0.0 - - - - - - -
19/01:30pm 26.2 WNW 10 17 1016.5 - 0.0 - - - - - - -
19/01:00pm 26.9 NW 8 12 1016.5 - 0.0 - - - - - - -
19/12:30pm 27.3 NW 6 10 1016.5 - 0.0 - - - - - - -
19/12:00pm 28.2 NNW 6 9 1016.9 - 0.0 - - - - - - -
19/11:30am 28.2 NW 7 12 1017.5 - 0.0 - - - - - - -
19/11:00am 27.7 NNW 8 14 1018.0 - 0.0 - - - - - - -
19/10:30am 26.8 NNW 6 11 1018.1 - 0.0 - - - - - - -
19/10:00am 26.0 NW 6 10 1018.6 - 0.0 - - - - - - -
19/09:30am 24.2 NW 7 11 1018.8 - 0.0 - - - - - - -
19/09:00am 23.1 NW 5 7 1018.8 - 0.0 - - - - - - -
19/08:30am 22.4 NW 5 8 1018.7 - 0.0 - - - - - - -
19/08:00am 22.0 NNW 6 8 1018.3 - 0.0 - - - - - - -
19/07:30am 21.1 NW 6 10 1018.1 - 0.0 - - - - - - -
19/07:00am 20.0 NNW 6 8 1017.7 - 0.0 - - - - - - -
19/06:30am 20.0 NNW 5 7 1017.5 - 0.0 - - - - - - -
19/06:00am 20.6 NW 6 9 1017.3 - 0.0 - - - - - - -
19/05:30am 20.4 NNW 6 9 1017.1 - 0.0 - - - - - - -
19/05:00am 20.2 N 6 8 1016.7 - 0.0 - - - - - - -
19/04:30am 20.5 NNW 6 8 1017.1 - 0.0 - - - - - - -
19/04:00am 20.9 NNW 6 8 1017.0 - 0.0 - - - - - - -
19/03:30am 21.1 NNW 6 10 1017.1 - 0.0 - - - - - - -
19/03:00am 21.4 N 7 10 1017.2 - 0.0 - - - - - - -
19/02:30am 21.9 NNW 7 12 1017.4 - 0.0 - - - - - - -
19/02:00am 21.6 NNW 8 13 1017.9 - 0.0 - - - - - - -
19/01:30am 21.7 NNW 8 13 1018.2 - 0.0 - - - - - - -
19/01:00am 21.6 N 7 12 1018.4 - 0.0 - - - - - - -
19/12:30am 21.5 NNW 7 9 1018.9 - 0.0 - - - - - - -
19/12:00am 21.9 NNW 6 10 1019.2 - 0.0 - - - - - - -
 
Date/Time
EST
Temp

°C
Wind Pressure Rain
since 9am
mm
Weather Cloud Vis
km
Sea
Height
m
Swell
Dir
 
Speed
knots
Gust
knots
hPa Trend Height
m
Period
s
Dir
18/11:30pm 22.1 NNW 8 14 1019.4 - 0.0 - - - - - - -
18/11:00pm 22.0 NNW 7 12 1019.4 - 0.0 - - - - - - -
18/10:30pm 22.2 NNW 7 11 1019.4 - 0.0 - - - - - - -
18/10:00pm 22.4 NNW 8 12 1019.6 - 0.0 - - - - - - -
18/09:30pm 22.8 N 8 12 1019.5 - 0.0 - - - - - - -
18/09:00pm 22.8 NNW 8 13 1019.4 - 0.0 - - - - - - -
18/08:30pm 23.4 N 7 12 1019.4 - 0.0 - - - - - - -
18/08:00pm 23.6 N 7 14 1019.0 - 0.0 - - - - - - -
18/07:30pm 23.6 N 7 14 1018.9 - 0.0 - - - - - - -
18/07:00pm 23.5 N 7 13 1018.6 - 0.0 - - - - - - -
18/06:30pm 23.5 N 7 14 1018.5 - 0.0 - - - - - - -
18/06:00pm 23.6 N 8 15 1018.5 - 0.0 - - - - - - -
18/05:30pm 23.7 N 8 13 1018.5 - 0.0 - - - - - - -
18/05:00pm 24.2 N 8 13 1018.6 - 0.0 - - - - - - -
18/04:30pm 24.4 N 8 15 1018.5 - 0.0 - - - - - - -
18/04:00pm 25.7 N 8 14 1018.4 - 0.0 - - - - - - -
18/03:30pm 26.2 N 9 14 1018.3 - 0.0 - - - - - - -
18/03:00pm 25.9 N 8 14 1018.5 - 0.0 - - - - - - -
18/02:30pm 26.4 N 8 12 1018.8 - 0.0 - - - - - - -
18/02:00pm 26.1 NNE 7 13 1019.0 - 0.0 - - - - - - -
18/01:30pm 27.1 NNE 6 9 1019.2 - 0.0 - - - - - - -
18/01:00pm 26.2 NNE 6 9 1019.7 - 0.0 - - - - - - -
18/12:30pm 25.9 NE 5 8 1020.3 - 0.0 - - - - - - -
18/12:00pm 27.0 N 4 6 1021.0 - 0.0 - - - - - - -
18/11:30am 25.7 NNE 5 6 1021.3 - 0.0 - - - - - - -
18/11:00am 24.9 NE 5 8 1021.8 - 0.0 - - - - - - -
18/10:30am 25.4 NW 4 6 1022.2 - 0.0 - - - - - - -
18/10:00am 24.7 W 5 8 1022.7 - 0.0 - - - - - - -
18/09:30am 23.8 WNW 5 9 1023.0 - 0.0 - - - - - - -
18/09:00am 22.4 NW 4 6 1023.1 - 0.0 - - - - - - -
18/08:30am 21.1 W 4 6 1023.1 - 0.0 - - - - - - -
18/08:00am 20.1 WSW 3 5 1023.1 - 0.0 - - - - - - -
18/07:30am 19.3 WSW 4 6 1022.7 - 0.0 - - - - - - -
18/07:00am 18.5 WSW 4 6 1022.3 - 0.0 - - - - - - -
18/06:30am 18.3 WSW 6 7 1021.8 - 0.0 - - - - - - -
18/06:00am 18.3 W 5 6 1021.4 - 0.0 - - - - - - -
18/05:30am 18.4 WSW 7 8 1021.4 - 0.0 - - - - - - -
18/05:00am 18.7 W 7 8 1021.4 - 0.0 - - - - - - -
18/04:30am 18.4 W 6 7 1021.5 - 0.0 - - - - - - -
18/04:00am 18.9 W 7 9 1021.6 - 0.0 - - - - - - -
18/03:30am 19.4 NW 5 8 1021.4 - 0.0 - - - - - - -
18/03:00am 19.6 NW 5 8 1021.5 - 0.0 - - - - - - -
18/02:30am 19.5 NW 5 8 1021.7 - 0.0 - - - - - - -
18/02:00am 19.4 NW 5 7 1022.0 - 0.0 - - - - - - -
18/01:30am 19.6 NW 5 7 1022.3 - 0.0 - - - - - - -
18/01:00am 19.6 WNW 4 7 1022.6 - 0.0 - - - - - - -
18/12:30am 20.1 NW 4 7 1022.7 - 0.0 - - - - - - -
18/12:00am 20.9 NNW 5 9 1022.8 - 0.0 - - - - - - -
 
Date/Time
EST
Temp

°C
Wind Pressure Rain
since 9am
mm
Weather Cloud Vis
km
Sea
Height
m
Swell
Dir
 
Speed
knots
Gust
knots
hPa Trend Height
m
Period
s
Dir
17/11:30pm 22.0 NNW 6 9 1022.8 - 0.0 - - - - - - -
17/11:00pm 22.4 NNW 6 10 1022.7 - 0.0 - - - - - - -
17/10:30pm 22.4 NNW 6 11 1022.8 - 0.0 - - - - - - -
17/10:00pm 22.5 N 5 11 1023.0 - 0.0 - - - - - - -
17/09:30pm 22.6 NNE 7 12 1023.0 - 0.0 - - - - - - -
17/09:00pm 22.7 N 7 13 1023.0 - 0.0 - - - - - - -
17/08:30pm 22.6 N 7 11 1022.9 - 0.0 - - - - - - -
17/08:00pm 22.7 N 6 10 1022.9 - 0.0 - - - - - - -
17/07:30pm 22.8 NNE 7 11 1022.6 - 0.0 - - - - - - -
17/07:00pm 23.0 NNE 6 11 1022.3 - 0.0 - - - - - - -
17/06:30pm 23.0 NNE 7 12 1021.9 - 0.0 - - - - - - -
17/06:00pm 23.2 N 6 11 1021.6 - 0.0 - - - - - - -
17/05:30pm 23.5 NNE 6 11 1021.3 - 0.0 - - - - - - -
17/05:00pm 23.8 NNE 6 12 1021.1 - 0.0 - - - - - - -
17/04:30pm 24.2 NE 6 11 1020.9 - 0.0 - - - - - - -
17/04:00pm 25.0 NE 5 11 1020.9 - 0.0 - - - - - - -
17/03:30pm 25.3 NE 6 10 1021.1 - 0.0 - - - - - - -
17/03:00pm 25.6 NE 6 11 1021.0 - 0.0 - - - - - - -
17/02:30pm 26.1 NNE 6 10 1020.9 - 0.0 - - - - - - -
17/02:00pm 25.9 NNE 6 11 1021.0 - 0.0 - - - - - - -
17/01:30pm 26.5 NNE 7 12 1021.2 - 0.0 - - - - - - -
17/01:00pm 27.5 N 6 9 1021.5 - 0.0 - - - - - - -
17/12:30pm 26.8 NNE 6 10 1022.0 - 0.0 - - - - - - -
17/12:00pm 27.1 NNE 6 11 1022.7 - 0.0 - - - - - - -
17/11:30am 27.2 N 6 10 1023.2 - 0.0 - - - - - - -
17/11:00am 27.2 N 5 8 1023.7 - 0.0 - - - - - - -
17/10:30am 25.7 NNW 5 7 1023.9 - 0.0 - - - - - - -
17/10:00am 25.3 NW 5 7 1024.2 - 0.0 - - - - - - -
17/09:30am 24.5 NW 5 8 1024.4 - 0.0 - - - - - - -
17/09:00am 23.2 NW 5 7 1024.5 - 0.0 - - - - - - -

Other Formats:

Comma delimited format used in spreadsheet applications
http://www.bom.gov.au/fwo/IDN60701/IDN60701.94589.axf

JavaScript Object Notation format (JSON) in row-major order
http://www.bom.gov.au/fwo/IDN60701/IDN60701.94589.json